sensor_id;sensor_type;location;lat;lon;timestamp;temperature;humidity
43183;DHT22;28802;38.578;-0.066;2022-08-01T00:02:27;26.40;99.90
43183;DHT22;28802;38.578;-0.066;2022-08-01T00:04:54;26.50;99.90
43183;DHT22;28802;38.578;-0.066;2022-08-01T00:07:20;26.60;99.90
43183;DHT22;28802;38.578;-0.066;2022-08-01T00:09:46;26.70;99.90
43183;DHT22;28802;38.578;-0.066;2022-08-01T00:12:12;26.60;99.90
43183;DHT22;28802;38.578;-0.066;2022-08-01T00:14:38;26.60;99.90
43183;DHT22;28802;38.578;-0.066;2022-08-01T00:17:03;26.60;99.90
43183;DHT22;28802;38.578;-0.066;2022-08-01T00:19:29;26.70;99.90
43183;DHT22;28802;38.578;-0.066;2022-08-01T00:21:55;26.70;99.90
43183;DHT22;28802;38.578;-0.066;2022-08-01T00:24:21;26.60;99.90
43183;DHT22;28802;38.578;-0.066;2022-08-01T00:26:47;26.60;99.90
43183;DHT22;28802;38.578;-0.066;2022-08-01T00:29:13;26.60;99.90
43183;DHT22;28802;38.578;-0.066;2022-08-01T00:31:39;26.60;99.90
43183;DHT22;28802;38.578;-0.066;2022-08-01T00:34:05;26.60;99.90
43183;DHT22;28802;38.578;-0.066;2022-08-01T00:36:31;26.60;99.90
43183;DHT22;28802;38.578;-0.066;2022-08-01T00:38:56;26.50;99.90
43183;DHT22;28802;38.578;-0.066;2022-08-01T00:41:22;26.60;99.90
43183;DHT22;28802;38.578;-0.066;2022-08-01T00:43:48;26.50;99.90
43183;DHT22;28802;38.578;-0.066;2022-08-01T00:46:14;26.40;99.90
43183;DHT22;28802;38.578;-0.066;2022-08-01T00:48:40;26.30;99.90
43183;DHT22;28802;38.578;-0.066;2022-08-01T00:51:07;26.20;99.90
43183;DHT22;28802;38.578;-0.066;2022-08-01T00:53:34;26.20;99.90
43183;DHT22;28802;38.578;-0.066;2022-08-01T00:55:59;26.10;99.90
43183;DHT22;28802;38.578;-0.066;2022-08-01T00:58:27;26.10;99.90
43183;DHT22;28802;38.578;-0.066;2022-08-01T01:00:56;26.20;99.90
43183;DHT22;28802;38.578;-0.066;2022-08-01T01:03:23;26.20;99.90
43183;DHT22;28802;38.578;-0.066;2022-08-01T01:06:38;26.30;99.90
43183;DHT22;28802;38.578;-0.066;2022-08-01T01:11:53;26.30;99.90
43183;DHT22;28802;38.578;-0.066;2022-08-01T01:14:55;26.30;99.90
43183;DHT22;28802;38.578;-0.066;2022-08-01T01:17:28;26.30;99.90
43183;DHT22;28802;38.578;-0.066;2022-08-01T01:19:59;26.20;99.90
43183;DHT22;28802;38.578;-0.066;2022-08-01T01:25:32;26.10;99.90
43183;DHT22;28802;38.578;-0.066;2022-08-01T01:28:33;26.20;99.90
43183;DHT22;28802;38.578;-0.066;2022-08-01T01:31:00;26.00;99.90
43183;DHT22;28802;38.578;-0.066;2022-08-01T01:33:27;26.00;99.90
43183;DHT22;28802;38.578;-0.066;2022-08-01T01:35:59;26.00;99.90
43183;DHT22;28802;38.578;-0.066;2022-08-01T01:38:31;25.90;99.90
43183;DHT22;28802;38.578;-0.066;2022-08-01T01:40:59;25.90;99.90
43183;DHT22;28802;38.578;-0.066;2022-08-01T01:43:26;25.80;99.90
43183;DHT22;28802;38.578;-0.066;2022-08-01T01:45:53;25.80;99.90
43183;DHT22;28802;38.578;-0.066;2022-08-01T01:48:20;25.70;99.90
43183;DHT22;28802;38.578;-0.066;2022-08-01T01:50:48;25.70;99.90
43183;DHT22;28802;38.578;-0.066;2022-08-01T01:53:19;25.80;99.90
43183;DHT22;28802;38.578;-0.066;2022-08-01T01:55:50;25.80;99.90
43183;DHT22;28802;38.578;-0.066;2022-08-01T01:58:18;25.70;99.90
43183;DHT22;28802;38.578;-0.066;2022-08-01T02:00:47;25.70;99.90
43183;DHT22;28802;38.578;-0.066;2022-08-01T02:03:14;25.90;99.90
43183;DHT22;28802;38.578;-0.066;2022-08-01T02:05:41;26.10;99.90
43183;DHT22;28802;38.578;-0.066;2022-08-01T02:08:10;26.40;99.90
43183;DHT22;28802;38.578;-0.066;2022-08-01T02:10:39;26.30;99.90
43183;DHT22;28802;38.578;-0.066;2022-08-01T02:13:06;26.10;99.90
43183;DHT22;28802;38.578;-0.066;2022-08-01T02:15:35;26.10;99.90
43183;DHT22;28802;38.578;-0.066;2022-08-01T02:18:05;26.10;99.90
43183;DHT22;28802;38.578;-0.066;2022-08-01T02:20:34;26.00;99.90
43183;DHT22;28802;38.578;-0.066;2022-08-01T02:23:13;26.00;99.90
43183;DHT22;28802;38.578;-0.066;2022-08-01T02:25:43;26.00;99.90
43183;DHT22;28802;38.578;-0.066;2022-08-01T02:28:24;26.00;99.90
43183;DHT22;28802;38.578;-0.066;2022-08-01T02:30:56;25.90;99.90
43183;DHT22;28802;38.578;-0.066;2022-08-01T02:33:33;25.80;99.90
43183;DHT22;28802;38.578;-0.066;2022-08-01T02:36:01;25.70;99.90
43183;DHT22;28802;38.578;-0.066;2022-08-01T02:38:32;25.70;99.90
43183;DHT22;28802;38.578;-0.066;2022-08-01T02:41:07;25.60;99.90
43183;DHT22;28802;38.578;-0.066;2022-08-01T02:43:37;25.50;99.90
43183;DHT22;28802;38.578;-0.066;2022-08-01T02:46:06;25.50;99.90
43183;DHT22;28802;38.578;-0.066;2022-08-01T02:48:35;25.50;99.90
43183;DHT22;28802;38.578;-0.066;2022-08-01T02:51:03;25.40;99.90
43183;DHT22;28802;38.578;-0.066;2022-08-01T02:53:32;25.50;99.90
43183;DHT22;28802;38.578;-0.066;2022-08-01T02:56:04;25.60;99.90
43183;DHT22;28802;38.578;-0.066;2022-08-01T02:58:32;25.70;99.90
43183;DHT22;28802;38.578;-0.066;2022-08-01T03:00:59;25.50;99.90
43183;DHT22;28802;38.578;-0.066;2022-08-01T03:03:27;25.50;99.90
43183;DHT22;28802;38.578;-0.066;2022-08-01T03:05:53;25.50;99.90
43183;DHT22;28802;38.578;-0.066;2022-08-01T03:08:19;25.50;99.90
43183;DHT22;28802;38.578;-0.066;2022-08-01T03:10:47;25.40;99.90
43183;DHT22;28802;38.578;-0.066;2022-08-01T03:13:14;25.50;99.90
43183;DHT22;28802;38.578;-0.066;2022-08-01T03:15:42;25.60;99.90
43183;DHT22;28802;38.578;-0.066;2022-08-01T03:18:10;25.60;99.90
43183;DHT22;28802;38.578;-0.066;2022-08-01T03:20:37;25.90;99.90
43183;DHT22;28802;38.578;-0.066;2022-08-01T03:23:06;25.90;99.90
43183;DHT22;28802;38.578;-0.066;2022-08-01T03:25:39;25.90;99.90
43183;DHT22;28802;38.578;-0.066;2022-08-01T03:28:07;25.70;99.90
43183;DHT22;28802;38.578;-0.066;2022-08-01T03:30:36;25.60;99.90
43183;DHT22;28802;38.578;-0.066;2022-08-01T03:33:03;25.70;99.90
43183;DHT22;28802;38.578;-0.066;2022-08-01T03:35:32;25.80;99.90
43183;DHT22;28802;38.578;-0.066;2022-08-01T03:38:00;25.80;99.90
43183;DHT22;28802;38.578;-0.066;2022-08-01T03:40:38;25.70;99.90
43183;DHT22;28802;38.578;-0.066;2022-08-01T03:43:15;25.70;99.90
43183;DHT22;28802;38.578;-0.066;2022-08-01T03:45:49;25.60;99.90
43183;DHT22;28802;38.578;-0.066;2022-08-01T03:48:21;25.60;99.90
43183;DHT22;28802;38.578;-0.066;2022-08-01T03:50:50;25.50;99.90
43183;DHT22;28802;38.578;-0.066;2022-08-01T03:53:22;25.50;99.90
43183;DHT22;28802;38.578;-0.066;2022-08-01T03:55:49;25.50;99.90
43183;DHT22;28802;38.578;-0.066;2022-08-01T03:58:16;25.50;99.90
43183;DHT22;28802;38.578;-0.066;2022-08-01T04:00:43;25.60;99.90
43183;DHT22;28802;38.578;-0.066;2022-08-01T04:03:10;25.50;99.90
43183;DHT22;28802;38.578;-0.066;2022-08-01T04:05:41;25.50;99.90
43183;DHT22;28802;38.578;-0.066;2022-08-01T04:08:07;25.40;99.90
43183;DHT22;28802;38.578;-0.066;2022-08-01T04:10:32;25.30;99.90
43183;DHT22;28802;38.578;-0.066;2022-08-01T04:12:59;25.30;99.90
43183;DHT22;28802;38.578;-0.066;2022-08-01T04:15:25;25.30;99.90
43183;DHT22;28802;38.578;-0.066;2022-08-01T04:17:51;25.30;99.90
43183;DHT22;28802;38.578;-0.066;2022-08-01T04:20:17;25.30;99.90
43183;DHT22;28802;38.578;-0.066;2022-08-01T04:22:43;25.30;99.90
43183;DHT22;28802;38.578;-0.066;2022-08-01T04:25:19;25.30;99.90
43183;DHT22;28802;38.578;-0.066;2022-08-01T04:27:49;25.20;99.90
43183;DHT22;28802;38.578;-0.066;2022-08-01T04:30:18;25.20;99.90
43183;DHT22;28802;38.578;-0.066;2022-08-01T04:32:46;25.30;99.90
43183;DHT22;28802;38.578;-0.066;2022-08-01T04:35:14;25.30;99.90
43183;DHT22;28802;38.578;-0.066;2022-08-01T04:37:45;25.30;99.90
43183;DHT22;28802;38.578;-0.066;2022-08-01T04:40:14;25.30;99.90
43183;DHT22;28802;38.578;-0.066;2022-08-01T04:42:41;25.20;99.90
43183;DHT22;28802;38.578;-0.066;2022-08-01T04:45:08;25.00;99.90
43183;DHT22;28802;38.578;-0.066;2022-08-01T04:47:36;24.90;99.90
43183;DHT22;28802;38.578;-0.066;2022-08-01T04:50:09;24.80;99.90
43183;DHT22;28802;38.578;-0.066;2022-08-01T04:52:37;24.80;99.90
43183;DHT22;28802;38.578;-0.066;2022-08-01T04:55:04;24.80;99.90
43183;DHT22;28802;38.578;-0.066;2022-08-01T04:57:39;24.80;99.90
43183;DHT22;28802;38.578;-0.066;2022-08-01T05:00:06;24.80;99.90
43183;DHT22;28802;38.578;-0.066;2022-08-01T05:02:32;24.80;99.90
43183;DHT22;28802;38.578;-0.066;2022-08-01T05:04:58;24.90;99.90
43183;DHT22;28802;38.578;-0.066;2022-08-01T05:07:24;24.80;99.90
43183;DHT22;28802;38.578;-0.066;2022-08-01T05:09:50;24.80;99.90
43183;DHT22;28802;38.578;-0.066;2022-08-01T05:12:16;24.70;99.90
43183;DHT22;28802;38.578;-0.066;2022-08-01T05:14:42;24.80;99.90
43183;DHT22;28802;38.578;-0.066;2022-08-01T05:17:09;24.80;99.90
43183;DHT22;28802;38.578;-0.066;2022-08-01T05:19:37;24.80;99.90
43183;DHT22;28802;38.578;-0.066;2022-08-01T05:22:06;24.90;99.90
43183;DHT22;28802;38.578;-0.066;2022-08-01T05:24:36;25.10;99.90
43183;DHT22;28802;38.578;-0.066;2022-08-01T05:27:03;25.30;99.90
43183;DHT22;28802;38.578;-0.066;2022-08-01T05:29:29;25.50;99.90
43183;DHT22;28802;38.578;-0.066;2022-08-01T05:31:55;25.50;99.90
43183;DHT22;28802;38.578;-0.066;2022-08-01T05:34:22;25.80;99.90
43183;DHT22;28802;38.578;-0.066;2022-08-01T05:36:48;26.20;99.90
43183;DHT22;28802;38.578;-0.066;2022-08-01T05:39:14;26.50;99.90
43183;DHT22;28802;38.578;-0.066;2022-08-01T05:41:41;26.80;99.90
43183;DHT22;28802;38.578;-0.066;2022-08-01T05:44:07;27.10;99.90
43183;DHT22;28802;38.578;-0.066;2022-08-01T05:46:33;27.50;99.90
43183;DHT22;28802;38.578;-0.066;2022-08-01T05:49:00;27.40;99.90
43183;DHT22;28802;38.578;-0.066;2022-08-01T05:51:26;27.60;99.90
43183;DHT22;28802;38.578;-0.066;2022-08-01T05:53:52;28.20;99.90
43183;DHT22;28802;38.578;-0.066;2022-08-01T05:56:19;28.80;99.90
43183;DHT22;28802;38.578;-0.066;2022-08-01T05:58:45;29.40;99.90
43183;DHT22;28802;38.578;-0.066;2022-08-01T06:01:11;30.00;99.90
43183;DHT22;28802;38.578;-0.066;2022-08-01T06:03:37;30.30;99.90
43183;DHT22;28802;38.578;-0.066;2022-08-01T06:06:03;30.00;99.90
43183;DHT22;28802;38.578;-0.066;2022-08-01T06:08:29;29.60;99.90
43183;DHT22;28802;38.578;-0.066;2022-08-01T06:10:56;29.60;99.90
43183;DHT22;28802;38.578;-0.066;2022-08-01T06:13:22;29.90;99.90
43183;DHT22;28802;38.578;-0.066;2022-08-01T06:15:48;29.70;99.90
43183;DHT22;28802;38.578;-0.066;2022-08-01T06:18:14;29.90;99.90
43183;DHT22;28802;38.578;-0.066;2022-08-01T06:20:40;30.00;99.90
43183;DHT22;28802;38.578;-0.066;2022-08-01T06:23:07;30.00;99.90
43183;DHT22;28802;38.578;-0.066;2022-08-01T06:25:33;30.20;99.90
43183;DHT22;28802;38.578;-0.066;2022-08-01T06:27:59;30.10;99.90
43183;DHT22;28802;38.578;-0.066;2022-08-01T06:30:26;30.20;99.90
43183;DHT22;28802;38.578;-0.066;2022-08-01T06:32:52;30.60;99.90
43183;DHT22;28802;38.578;-0.066;2022-08-01T06:35:18;30.60;99.90
43183;DHT22;28802;38.578;-0.066;2022-08-01T06:37:44;31.10;99.90
43183;DHT22;28802;38.578;-0.066;2022-08-01T06:40:12;31.30;99.90
43183;DHT22;28802;38.578;-0.066;2022-08-01T06:42:39;31.40;99.90
43183;DHT22;28802;38.578;-0.066;2022-08-01T06:45:07;31.60;99.90
43183;DHT22;28802;38.578;-0.066;2022-08-01T06:47:33;32.50;99.90
43183;DHT22;28802;38.578;-0.066;2022-08-01T06:49:59;32.60;99.90
43183;DHT22;28802;38.578;-0.066;2022-08-01T06:52:25;33.10;99.90
43183;DHT22;28802;38.578;-0.066;2022-08-01T06:54:51;34.00;99.90
43183;DHT22;28802;38.578;-0.066;2022-08-01T06:57:18;34.90;99.90
43183;DHT22;28802;38.578;-0.066;2022-08-01T06:59:44;35.10;99.90
43183;DHT22;28802;38.578;-0.066;2022-08-01T07:02:10;35.90;99.90
43183;DHT22;28802;38.578;-0.066;2022-08-01T07:04:36;36.70;99.90
43183;DHT22;28802;38.578;-0.066;2022-08-01T07:07:02;37.20;99.90
43183;DHT22;28802;38.578;-0.066;2022-08-01T07:09:28;36.90;99.90
43183;DHT22;28802;38.578;-0.066;2022-08-01T07:11:54;36.40;99.90
43183;DHT22;28802;38.578;-0.066;2022-08-01T07:14:22;35.70;99.90
43183;DHT22;28802;38.578;-0.066;2022-08-01T07:16:48;35.30;99.90
43183;DHT22;28802;38.578;-0.066;2022-08-01T07:19:15;35.60;99.90
43183;DHT22;28802;38.578;-0.066;2022-08-01T07:21:41;35.80;99.90
43183;DHT22;28802;38.578;-0.066;2022-08-01T07:24:11;36.40;99.90
43183;DHT22;28802;38.578;-0.066;2022-08-01T07:26:39;36.60;99.90
43183;DHT22;28802;38.578;-0.066;2022-08-01T07:29:05;36.00;99.90
43183;DHT22;28802;38.578;-0.066;2022-08-01T07:31:31;34.90;99.90
43183;DHT22;28802;38.578;-0.066;2022-08-01T07:33:56;34.20;99.90
43183;DHT22;28802;38.578;-0.066;2022-08-01T07:36:22;33.60;99.90
43183;DHT22;28802;38.578;-0.066;2022-08-01T07:38:48;33.90;99.90
43183;DHT22;28802;38.578;-0.066;2022-08-01T07:41:14;34.90;99.90
43183;DHT22;28802;38.578;-0.066;2022-08-01T07:43:40;35.30;99.90
43183;DHT22;28802;38.578;-0.066;2022-08-01T07:46:06;34.90;99.90
43183;DHT22;28802;38.578;-0.066;2022-08-01T07:48:33;34.70;99.90
43183;DHT22;28802;38.578;-0.066;2022-08-01T07:50:59;35.00;99.90
43183;DHT22;28802;38.578;-0.066;2022-08-01T07:53:25;34.60;99.90
43183;DHT22;28802;38.578;-0.066;2022-08-01T07:55:52;34.50;99.90
43183;DHT22;28802;38.578;-0.066;2022-08-01T07:58:18;34.60;99.90
43183;DHT22;28802;38.578;-0.066;2022-08-01T08:00:44;33.90;99.90
43183;DHT22;28802;38.578;-0.066;2022-08-01T08:03:10;33.50;99.90
43183;DHT22;28802;38.578;-0.066;2022-08-01T08:05:36;33.50;99.90
43183;DHT22;28802;38.578;-0.066;2022-08-01T08:08:05;34.00;99.90
43183;DHT22;28802;38.578;-0.066;2022-08-01T08:10:32;33.40;99.90
43183;DHT22;28802;38.578;-0.066;2022-08-01T08:12:58;33.20;99.90
43183;DHT22;28802;38.578;-0.066;2022-08-01T08:15:24;33.40;99.90
43183;DHT22;28802;38.578;-0.066;2022-08-01T08:17:50;34.00;99.90
43183;DHT22;28802;38.578;-0.066;2022-08-01T08:20:16;33.80;99.90
43183;DHT22;28802;38.578;-0.066;2022-08-01T08:22:42;33.50;99.90
43183;DHT22;28802;38.578;-0.066;2022-08-01T08:25:08;33.30;99.90
43183;DHT22;28802;38.578;-0.066;2022-08-01T08:27:35;33.00;99.90
43183;DHT22;28802;38.578;-0.066;2022-08-01T08:30:03;32.30;99.90
43183;DHT22;28802;38.578;-0.066;2022-08-01T08:32:31;32.80;99.90
43183;DHT22;28802;38.578;-0.066;2022-08-01T08:34:57;33.60;99.90
43183;DHT22;28802;38.578;-0.066;2022-08-01T08:37:23;33.80;99.90
43183;DHT22;28802;38.578;-0.066;2022-08-01T08:39:48;33.80;99.90
43183;DHT22;28802;38.578;-0.066;2022-08-01T08:42:14;34.10;99.90
43183;DHT22;28802;38.578;-0.066;2022-08-01T08:44:41;34.20;99.90
43183;DHT22;28802;38.578;-0.066;2022-08-01T08:47:08;33.90;99.90
43183;DHT22;28802;38.578;-0.066;2022-08-01T08:49:35;33.10;99.90
43183;DHT22;28802;38.578;-0.066;2022-08-01T08:52:03;33.60;99.90
43183;DHT22;28802;38.578;-0.066;2022-08-01T08:54:30;34.10;99.90
43183;DHT22;28802;38.578;-0.066;2022-08-01T08:56:59;34.70;99.90
43183;DHT22;28802;38.578;-0.066;2022-08-01T08:59:25;34.10;99.90
43183;DHT22;28802;38.578;-0.066;2022-08-01T09:01:52;34.00;99.90
43183;DHT22;28802;38.578;-0.066;2022-08-01T09:04:18;34.30;99.90
43183;DHT22;28802;38.578;-0.066;2022-08-01T09:06:46;34.10;99.90
43183;DHT22;28802;38.578;-0.066;2022-08-01T09:09:12;33.40;99.90
43183;DHT22;28802;38.578;-0.066;2022-08-01T09:11:38;33.00;99.90
43183;DHT22;28802;38.578;-0.066;2022-08-01T09:14:11;33.10;99.90
43183;DHT22;28802;38.578;-0.066;2022-08-01T09:16:41;33.20;99.90
43183;DHT22;28802;38.578;-0.066;2022-08-01T09:19:13;33.50;99.90
43183;DHT22;28802;38.578;-0.066;2022-08-01T09:21:55;33.60;99.90
43183;DHT22;28802;38.578;-0.066;2022-08-01T09:24:22;34.10;99.90
43183;DHT22;28802;38.578;-0.066;2022-08-01T09:26:48;34.20;99.90
43183;DHT22;28802;38.578;-0.066;2022-08-01T09:29:24;33.60;99.90
43183;DHT22;28802;38.578;-0.066;2022-08-01T09:31:50;33.30;99.90
43183;DHT22;28802;38.578;-0.066;2022-08-01T09:34:25;33.40;99.90
43183;DHT22;28802;38.578;-0.066;2022-08-01T09:37:01;33.70;99.90
43183;DHT22;28802;38.578;-0.066;2022-08-01T09:39:30;33.60;99.90
43183;DHT22;28802;38.578;-0.066;2022-08-01T09:42:00;33.30;99.90
43183;DHT22;28802;38.578;-0.066;2022-08-01T09:44:41;33.10;99.90
43183;DHT22;28802;38.578;-0.066;2022-08-01T09:47:08;32.70;99.90
43183;DHT22;28802;38.578;-0.066;2022-08-01T09:49:39;33.30;99.90
43183;DHT22;28802;38.578;-0.066;2022-08-01T09:52:14;34.00;99.90
43183;DHT22;28802;38.578;-0.066;2022-08-01T09:54:41;33.70;99.90
43183;DHT22;28802;38.578;-0.066;2022-08-01T09:57:13;34.30;99.90
43183;DHT22;28802;38.578;-0.066;2022-08-01T09:59:41;34.40;99.90
43183;DHT22;28802;38.578;-0.066;2022-08-01T10:02:09;33.80;99.90
43183;DHT22;28802;38.578;-0.066;2022-08-01T10:04:46;34.30;99.90
43183;DHT22;28802;38.578;-0.066;2022-08-01T10:07:13;33.60;99.90
43183;DHT22;28802;38.578;-0.066;2022-08-01T10:09:42;32.70;99.90
43183;DHT22;28802;38.578;-0.066;2022-08-01T10:12:09;32.20;99.90
43183;DHT22;28802;38.578;-0.066;2022-08-01T10:14:37;33.00;99.90
43183;DHT22;28802;38.578;-0.066;2022-08-01T10:17:04;33.20;99.90
43183;DHT22;28802;38.578;-0.066;2022-08-01T10:19:32;32.80;99.90
43183;DHT22;28802;38.578;-0.066;2022-08-01T10:22:00;33.30;99.90
43183;DHT22;28802;38.578;-0.066;2022-08-01T10:24:29;33.60;99.90
43183;DHT22;28802;38.578;-0.066;2022-08-01T10:27:01;33.90;99.90
43183;DHT22;28802;38.578;-0.066;2022-08-01T10:29:34;33.80;99.90
43183;DHT22;28802;38.578;-0.066;2022-08-01T10:32:04;33.10;99.90
43183;DHT22;28802;38.578;-0.066;2022-08-01T10:34:30;33.10;99.90
43183;DHT22;28802;38.578;-0.066;2022-08-01T10:36:57;32.00;99.90
43183;DHT22;28802;38.578;-0.066;2022-08-01T10:39:23;32.30;99.90
43183;DHT22;28802;38.578;-0.066;2022-08-01T10:41:50;32.00;99.90
43183;DHT22;28802;38.578;-0.066;2022-08-01T10:44:17;32.10;99.90
43183;DHT22;28802;38.578;-0.066;2022-08-01T10:46:48;32.70;99.90
43183;DHT22;28802;38.578;-0.066;2022-08-01T10:49:17;32.60;99.90
43183;DHT22;28802;38.578;-0.066;2022-08-01T10:51:45;31.90;99.90
43183;DHT22;28802;38.578;-0.066;2022-08-01T10:54:12;31.80;99.90
43183;DHT22;28802;38.578;-0.066;2022-08-01T10:56:46;31.70;99.90
43183;DHT22;28802;38.578;-0.066;2022-08-01T10:59:24;31.70;99.90
43183;DHT22;28802;38.578;-0.066;2022-08-01T11:02:04;31.90;99.90
43183;DHT22;28802;38.578;-0.066;2022-08-01T11:05:01;31.30;99.90
43183;DHT22;28802;38.578;-0.066;2022-08-01T11:07:42;31.50;99.90
43183;DHT22;28802;38.578;-0.066;2022-08-01T11:10:41;32.20;99.90
43183;DHT22;28802;38.578;-0.066;2022-08-01T11:13:08;32.40;99.90
43183;DHT22;28802;38.578;-0.066;2022-08-01T11:15:40;31.60;99.90
43183;DHT22;28802;38.578;-0.066;2022-08-01T11:20:57;32.30;99.90
43183;DHT22;28802;38.578;-0.066;2022-08-01T11:23:24;33.00;99.90
43183;DHT22;28802;38.578;-0.066;2022-08-01T11:28:17;33.30;99.90
43183;DHT22;28802;38.578;-0.066;2022-08-01T11:30:52;33.40;99.90
43183;DHT22;28802;38.578;-0.066;2022-08-01T11:33:47;33.10;99.90
43183;DHT22;28802;38.578;-0.066;2022-08-01T11:41:15;32.60;99.90
43183;DHT22;28802;38.578;-0.066;2022-08-01T11:44:01;32.20;99.90
43183;DHT22;28802;38.578;-0.066;2022-08-01T11:46:56;33.00;99.90
43183;DHT22;28802;38.578;-0.066;2022-08-01T11:49:43;32.70;99.90
43183;DHT22;28802;38.578;-0.066;2022-08-01T11:52:26;32.20;99.90
43183;DHT22;28802;38.578;-0.066;2022-08-01T11:55:06;32.20;99.90
43183;DHT22;28802;38.578;-0.066;2022-08-01T11:57:33;31.80;99.90
43183;DHT22;28802;38.578;-0.066;2022-08-01T12:03:06;31.00;99.90
43183;DHT22;28802;38.578;-0.066;2022-08-01T12:05:34;31.10;99.90
43183;DHT22;28802;38.578;-0.066;2022-08-01T12:08:03;31.10;99.90
43183;DHT22;28802;38.578;-0.066;2022-08-01T12:10:33;31.10;99.90
43183;DHT22;28802;38.578;-0.066;2022-08-01T12:13:05;31.30;99.90
43183;DHT22;28802;38.578;-0.066;2022-08-01T12:15:36;30.90;99.90
43183;DHT22;28802;38.578;-0.066;2022-08-01T12:18:07;30.80;99.90
43183;DHT22;28802;38.578;-0.066;2022-08-01T12:20:35;30.40;99.90
43183;DHT22;28802;38.578;-0.066;2022-08-01T12:23:04;30.30;99.90
43183;DHT22;28802;38.578;-0.066;2022-08-01T12:25:34;30.10;99.90
43183;DHT22;28802;38.578;-0.066;2022-08-01T12:28:02;30.40;99.90
43183;DHT22;28802;38.578;-0.066;2022-08-01T12:30:29;30.40;99.90
43183;DHT22;28802;38.578;-0.066;2022-08-01T12:32:57;30.30;99.90
43183;DHT22;28802;38.578;-0.066;2022-08-01T12:35:28;30.20;99.90
43183;DHT22;28802;38.578;-0.066;2022-08-01T12:38:00;30.20;99.90
43183;DHT22;28802;38.578;-0.066;2022-08-01T12:40:32;30.00;99.90
43183;DHT22;28802;38.578;-0.066;2022-08-01T12:43:04;29.90;99.90
43183;DHT22;28802;38.578;-0.066;2022-08-01T12:45:34;29.70;99.90
43183;DHT22;28802;38.578;-0.066;2022-08-01T12:48:01;29.80;99.90
43183;DHT22;28802;38.578;-0.066;2022-08-01T12:50:30;29.70;99.90
43183;DHT22;28802;38.578;-0.066;2022-08-01T12:52:57;29.90;99.90
43183;DHT22;28802;38.578;-0.066;2022-08-01T12:55:26;29.70;99.90
43183;DHT22;28802;38.578;-0.066;2022-08-01T12:58:10;29.90;99.90
43183;DHT22;28802;38.578;-0.066;2022-08-01T13:00:38;30.30;99.90
43183;DHT22;28802;38.578;-0.066;2022-08-01T13:03:28;30.50;99.90
43183;DHT22;28802;38.578;-0.066;2022-08-01T13:05:56;30.00;99.90
43183;DHT22;28802;38.578;-0.066;2022-08-01T13:08:23;30.30;99.90
43183;DHT22;28802;38.578;-0.066;2022-08-01T13:10:50;30.30;99.90
43183;DHT22;28802;38.578;-0.066;2022-08-01T13:13:37;30.20;99.90
43183;DHT22;28802;38.578;-0.066;2022-08-01T13:16:05;30.20;99.90
43183;DHT22;28802;38.578;-0.066;2022-08-01T13:18:33;29.80;99.90
43183;DHT22;28802;38.578;-0.066;2022-08-01T13:21:20;29.70;99.90
43183;DHT22;28802;38.578;-0.066;2022-08-01T13:24:06;30.00;99.90
43183;DHT22;28802;38.578;-0.066;2022-08-01T13:26:53;30.10;99.90
43183;DHT22;28802;38.578;-0.066;2022-08-01T13:29:37;30.10;99.90
43183;DHT22;28802;38.578;-0.066;2022-08-01T13:32:20;30.00;99.90
43183;DHT22;28802;38.578;-0.066;2022-08-01T13:34:46;30.20;99.90
43183;DHT22;28802;38.578;-0.066;2022-08-01T13:37:12;30.00;99.90
43183;DHT22;28802;38.578;-0.066;2022-08-01T13:39:38;30.40;99.90
43183;DHT22;28802;38.578;-0.066;2022-08-01T13:42:15;30.40;99.90
43183;DHT22;28802;38.578;-0.066;2022-08-01T13:44:42;30.40;99.90
43183;DHT22;28802;38.578;-0.066;2022-08-01T13:47:11;30.40;99.90
43183;DHT22;28802;38.578;-0.066;2022-08-01T13:49:37;30.20;99.90
43183;DHT22;28802;38.578;-0.066;2022-08-01T13:52:04;30.20;99.90
43183;DHT22;28802;38.578;-0.066;2022-08-01T13:54:32;30.10;99.90
43183;DHT22;28802;38.578;-0.066;2022-08-01T13:56:58;30.10;99.90
43183;DHT22;28802;38.578;-0.066;2022-08-01T13:59:24;30.10;99.90
43183;DHT22;28802;38.578;-0.066;2022-08-01T14:01:50;30.20;99.90
43183;DHT22;28802;38.578;-0.066;2022-08-01T14:04:16;30.40;99.90
43183;DHT22;28802;38.578;-0.066;2022-08-01T14:06:42;30.20;99.90
43183;DHT22;28802;38.578;-0.066;2022-08-01T14:09:08;30.20;99.90
43183;DHT22;28802;38.578;-0.066;2022-08-01T14:11:34;30.10;99.90
43183;DHT22;28802;38.578;-0.066;2022-08-01T14:14:00;30.30;99.90
43183;DHT22;28802;38.578;-0.066;2022-08-01T14:16:26;30.30;99.90
43183;DHT22;28802;38.578;-0.066;2022-08-01T14:18:52;30.30;99.90
43183;DHT22;28802;38.578;-0.066;2022-08-01T14:21:18;30.30;99.90
43183;DHT22;28802;38.578;-0.066;2022-08-01T14:23:44;30.20;99.90
43183;DHT22;28802;38.578;-0.066;2022-08-01T14:26:10;30.20;99.90
43183;DHT22;28802;38.578;-0.066;2022-08-01T14:28:37;30.10;99.90
43183;DHT22;28802;38.578;-0.066;2022-08-01T14:31:03;30.10;99.90
43183;DHT22;28802;38.578;-0.066;2022-08-01T14:33:31;30.00;99.90
43183;DHT22;28802;38.578;-0.066;2022-08-01T14:35:57;29.90;99.90
43183;DHT22;28802;38.578;-0.066;2022-08-01T14:38:24;29.90;99.90
43183;DHT22;28802;38.578;-0.066;2022-08-01T14:40:49;30.00;99.90
43183;DHT22;28802;38.578;-0.066;2022-08-01T14:43:20;29.90;99.90
43183;DHT22;28802;38.578;-0.066;2022-08-01T14:45:46;29.80;99.90
43183;DHT22;28802;38.578;-0.066;2022-08-01T14:48:16;29.70;99.90
43183;DHT22;28802;38.578;-0.066;2022-08-01T14:50:43;29.80;99.90
43183;DHT22;28802;38.578;-0.066;2022-08-01T14:53:08;29.90;99.90
43183;DHT22;28802;38.578;-0.066;2022-08-01T14:55:35;29.90;99.90
43183;DHT22;28802;38.578;-0.066;2022-08-01T14:58:01;29.90;99.90
43183;DHT22;28802;38.578;-0.066;2022-08-01T15:00:27;29.90;99.90
43183;DHT22;28802;38.578;-0.066;2022-08-01T15:02:53;30.00;99.90
43183;DHT22;28802;38.578;-0.066;2022-08-01T15:05:19;30.10;99.90
43183;DHT22;28802;38.578;-0.066;2022-08-01T15:07:44;30.10;99.90
43183;DHT22;28802;38.578;-0.066;2022-08-01T15:10:10;30.20;99.90
43183;DHT22;28802;38.578;-0.066;2022-08-01T15:12:37;30.20;99.90
43183;DHT22;28802;38.578;-0.066;2022-08-01T15:15:04;30.10;99.90
43183;DHT22;28802;38.578;-0.066;2022-08-01T15:17:31;30.20;99.90
43183;DHT22;28802;38.578;-0.066;2022-08-01T15:20:02;30.10;99.90
43183;DHT22;28802;38.578;-0.066;2022-08-01T15:22:28;30.30;99.90
43183;DHT22;28802;38.578;-0.066;2022-08-01T15:24:56;30.40;99.90
43183;DHT22;28802;38.578;-0.066;2022-08-01T15:27:24;30.60;99.90
43183;DHT22;28802;38.578;-0.066;2022-08-01T15:29:50;30.50;99.90
43183;DHT22;28802;38.578;-0.066;2022-08-01T15:32:16;30.40;99.90
43183;DHT22;28802;38.578;-0.066;2022-08-01T15:34:42;30.20;99.90
43183;DHT22;28802;38.578;-0.066;2022-08-01T15:37:09;30.30;99.90
43183;DHT22;28802;38.578;-0.066;2022-08-01T15:39:36;30.30;99.90
43183;DHT22;28802;38.578;-0.066;2022-08-01T15:42:06;30.30;99.90
43183;DHT22;28802;38.578;-0.066;2022-08-01T15:44:32;30.20;99.90
43183;DHT22;28802;38.578;-0.066;2022-08-01T15:47:00;30.20;99.90